RYR88DM EGSS-LFBL
Flight info
| Callsign | RYR88DM |
|---|---|
| Flight time | 1h 7m |
| Altitude | 29000 |
| Route | NUGBO M183 SILVA Q41 COWLY T71 VAPID N859 DRAKE L151 SITET UN859 VANAD A34 AMB R10 BALAN |
| Aircraft | B738/M-SDE2E3FGHIRWXY/LB1 |
Departure
| Time | 2026-04-25 09:27 |
|---|---|
| Airport | London Stansted Airport (EGSS) |
Arrival
| Time | 2026-04-25 10:35 |
|---|---|
| Airport | Limoges Airport (LFBL) |
| Time | Latitude | Longitude | Altitude | Speed | Heading |
|---|---|---|---|---|---|
| 2026-04-25 09:01 | 51.89220 | 0.25483 | 356 ft | 0 kts | 102° |
| 2026-04-25 09:18 | 51.89220 | 0.25481 | 348 ft | 2 kts | 102° |
| 2026-04-25 09:18 | 51.89225 | 0.25442 | 351 ft | 4 kts | 102° |
| 2026-04-25 09:19 | 51.89231 | 0.25400 | 356 ft | 4 kts | 98° |
| 2026-04-25 09:19 | 51.89229 | 0.25361 | 354 ft | 4 kts | 55° |
| 2026-04-25 09:19 | 51.89212 | 0.25332 | 353 ft | 3 kts | 43° |
| 2026-04-25 09:19 | 51.89209 | 0.25327 | 358 ft | 0 kts | 43° |
| 2026-04-25 09:23 | 51.89211 | 0.25330 | 352 ft | 2 kts | 43° |
| 2026-04-25 09:23 | 51.89233 | 0.25363 | 353 ft | 6 kts | 43° |
| 2026-04-25 09:24 | 51.89262 | 0.25408 | 351 ft | 6 kts | 43° |
| 2026-04-25 09:24 | 51.89292 | 0.25453 | 351 ft | 6 kts | 43° |
| 2026-04-25 09:24 | 51.89322 | 0.25497 | 348 ft | 6 kts | 43° |
| 2026-04-25 09:24 | 51.89358 | 0.25534 | 352 ft | 7 kts | 11° |
| 2026-04-25 09:25 | 51.89407 | 0.25498 | 355 ft | 10 kts | 314° |
| 2026-04-25 09:25 | 51.89416 | 0.25371 | 348 ft | 13 kts | 280° |
| 2026-04-25 09:25 | 51.89465 | 0.25270 | 350 ft | 7 kts | 307° |
| 2026-04-25 09:25 | 51.89488 | 0.25205 | 347 ft | 0 kts | 285° |
| 2026-04-25 09:26 | 51.89489 | 0.25201 | 346 ft | 0 kts | 285° |
| 2026-04-25 09:26 | 51.89489 | 0.25199 | 346 ft | 1 kts | 284° |
| 2026-04-25 09:26 | 51.89493 | 0.25103 | 342 ft | 17 kts | 270° |
| 2026-04-25 09:26 | 51.89449 | 0.24905 | 337 ft | 21 kts | 225° |
| 2026-04-25 09:27 | 51.89242 | 0.24592 | 336 ft | 73 kts | 223° |
| 2026-04-25 09:27 | 51.88697 | 0.23777 | 335 ft | 137 kts | 223° |
| 2026-04-25 09:27 | 51.87899 | 0.22575 | 585 ft | 167 kts | 223° |
| 2026-04-25 09:27 | 51.87062 | 0.21278 | 1436 ft | 167 kts | 223° |
| 2026-04-25 09:28 | 51.86199 | 0.19976 | 2154 ft | 174 kts | 223° |
| 2026-04-25 09:28 | 51.85239 | 0.18540 | 2506 ft | 204 kts | 223° |
| 2026-04-25 09:28 | 51.84149 | 0.16904 | 2748 ft | 228 kts | 223° |
| 2026-04-25 09:28 | 51.83211 | 0.15055 | 3067 ft | 240 kts | 246° |
| 2026-04-25 09:29 | 51.83047 | 0.12304 | 3358 ft | 258 kts | 286° |
| 2026-04-25 09:29 | 51.84021 | 0.09879 | 4015 ft | 264 kts | 323° |
| 2026-04-25 09:29 | 51.85704 | 0.08760 | 4913 ft | 263 kts | 348° |
| 2026-04-25 09:29 | 51.87541 | 0.08453 | 5693 ft | 268 kts | 358° |
| 2026-04-25 09:30 | 51.89416 | 0.08336 | 6477 ft | 272 kts | 355° |
| 2026-04-25 09:30 | 51.91249 | 0.07711 | 7216 ft | 275 kts | 331° |
| 2026-04-25 09:30 | 51.92647 | 0.05652 | 7998 ft | 275 kts | 303° |
| 2026-04-25 09:30 | 51.93642 | 0.02998 | 8799 ft | 276 kts | 300° |
| 2026-04-25 09:31 | 51.94620 | 0.00297 | 9571 ft | 279 kts | 300° |
| 2026-04-25 09:31 | 51.95612 | -0.02433 | 10365 ft | 281 kts | 297° |
| 2026-04-25 09:31 | 51.96132 | -0.05548 | 10676 ft | 301 kts | 269° |
| 2026-04-25 09:31 | 51.95580 | -0.08871 | 10840 ft | 323 kts | 240° |
| 2026-04-25 09:32 | 51.94189 | -0.11839 | 11265 ft | 336 kts | 229° |
| 2026-04-25 09:32 | 51.92543 | -0.14581 | 11900 ft | 342 kts | 225° |
| 2026-04-25 09:32 | 51.90816 | -0.17260 | 12625 ft | 345 kts | 224° |
| 2026-04-25 09:32 | 51.89064 | -0.19949 | 13360 ft | 348 kts | 224° |
| 2026-04-25 09:33 | 51.87301 | -0.22674 | 14081 ft | 352 kts | 224° |
| 2026-04-25 09:33 | 51.85421 | -0.25234 | 14737 ft | 355 kts | 213° |
| 2026-04-25 09:33 | 51.83227 | -0.27016 | 15443 ft | 359 kts | 200° |
| 2026-04-25 09:33 | 51.80837 | -0.28261 | 16150 ft | 362 kts | 198° |
| 2026-04-25 09:34 | 51.78410 | -0.29459 | 16805 ft | 366 kts | 198° |
| 2026-04-25 09:34 | 51.75953 | -0.30663 | 17474 ft | 369 kts | 198° |
| 2026-04-25 09:34 | 51.73615 | -0.31816 | 18118 ft | 373 kts | 198° |
| 2026-04-25 09:34 | 51.71154 | -0.33040 | 18752 ft | 376 kts | 199° |
| 2026-04-25 09:35 | 51.68646 | -0.34297 | 19351 ft | 379 kts | 199° |
| 2026-04-25 09:35 | 51.66113 | -0.35573 | 19960 ft | 381 kts | 199° |
| 2026-04-25 09:35 | 51.63557 | -0.36862 | 20550 ft | 384 kts | 199° |
| 2026-04-25 09:35 | 51.61031 | -0.38139 | 21164 ft | 387 kts | 199° |
| 2026-04-25 09:36 | 51.58446 | -0.39445 | 21733 ft | 389 kts | 199° |
| 2026-04-25 09:36 | 51.55842 | -0.40761 | 22269 ft | 393 kts | 199° |
| 2026-04-25 09:36 | 51.53222 | -0.42083 | 22798 ft | 396 kts | 199° |
| 2026-04-25 09:36 | 51.50785 | -0.43311 | 23292 ft | 398 kts | 199° |
| 2026-04-25 09:37 | 51.48129 | -0.44648 | 23796 ft | 401 kts | 199° |
| 2026-04-25 09:37 | 51.45490 | -0.45974 | 24238 ft | 403 kts | 199° |
| 2026-04-25 09:37 | 51.42803 | -0.47322 | 24717 ft | 405 kts | 199° |
| 2026-04-25 09:37 | 51.40113 | -0.48671 | 25184 ft | 406 kts | 199° |
| 2026-04-25 09:38 | 51.37407 | -0.50026 | 25638 ft | 407 kts | 199° |
| 2026-04-25 09:38 | 51.34703 | -0.51378 | 26073 ft | 409 kts | 199° |
| 2026-04-25 09:38 | 51.31970 | -0.52743 | 26498 ft | 410 kts | 199° |
| 2026-04-25 09:38 | 51.29233 | -0.54108 | 26925 ft | 412 kts | 199° |
| 2026-04-25 09:39 | 51.26520 | -0.55460 | 27324 ft | 414 kts | 199° |
| 2026-04-25 09:39 | 51.23785 | -0.56822 | 27715 ft | 416 kts | 199° |
| 2026-04-25 09:39 | 51.21010 | -0.58200 | 28124 ft | 418 kts | 200° |
| 2026-04-25 09:40 | 51.15430 | -0.60969 | 28882 ft | 421 kts | 200° |
| 2026-04-25 09:40 | 51.12736 | -0.62303 | 29225 ft | 423 kts | 200° |
| 2026-04-25 09:40 | 51.07041 | -0.65119 | 29228 ft | 427 kts | 200° |
| 2026-04-25 09:41 | 51.01448 | -0.67873 | 29230 ft | 421 kts | 200° |
| 2026-04-25 09:41 | 50.95835 | -0.70635 | 29234 ft | 423 kts | 199° |
| 2026-04-25 09:42 | 50.90199 | -0.73398 | 29235 ft | 424 kts | 199° |
| 2026-04-25 09:42 | 50.87260 | -0.74131 | 29222 ft | 431 kts | 181° |
| 2026-04-25 09:42 | 50.84272 | -0.73476 | 29223 ft | 437 kts | 167° |
| 2026-04-25 09:43 | 50.81492 | -0.71609 | 29243 ft | 444 kts | 152° |
| 2026-04-25 09:43 | 50.78906 | -0.68891 | 29225 ft | 446 kts | 148° |
| 2026-04-25 09:43 | 50.73862 | -0.63243 | 29221 ft | 446 kts | 148° |
| 2026-04-25 09:44 | 50.68725 | -0.57704 | 29226 ft | 446 kts | 149° |
| 2026-04-25 09:44 | 50.63557 | -0.52287 | 29226 ft | 445 kts | 149° |
| 2026-04-25 09:45 | 50.58397 | -0.46850 | 29232 ft | 445 kts | 149° |
| 2026-04-25 09:45 | 50.53275 | -0.41440 | 29225 ft | 445 kts | 149° |
| 2026-04-25 09:46 | 50.48121 | -0.36011 | 29210 ft | 445 kts | 149° |
| 2026-04-25 09:46 | 50.42971 | -0.30606 | 29208 ft | 445 kts | 149° |
| 2026-04-25 09:47 | 50.37851 | -0.25247 | 29209 ft | 444 kts | 149° |
| 2026-04-25 09:47 | 50.32694 | -0.19864 | 29225 ft | 444 kts | 149° |
| 2026-04-25 09:48 | 50.28403 | -0.15393 | 29209 ft | 445 kts | 149° |
| 2026-04-25 09:48 | 50.23236 | -0.10024 | 29208 ft | 445 kts | 149° |
| 2026-04-25 09:49 | 50.17901 | -0.05324 | 29222 ft | 440 kts | 160° |
| 2026-04-25 09:49 | 50.12256 | -0.01569 | 29206 ft | 441 kts | 159° |
| 2026-04-25 09:50 | 50.06476 | 0.01549 | 29207 ft | 437 kts | 169° |
| 2026-04-25 09:50 | 50.00591 | 0.03784 | 29199 ft | 438 kts | 169° |
| 2026-04-25 09:51 | 49.94657 | 0.06038 | 29194 ft | 438 kts | 169° |
| 2026-04-25 09:51 | 49.88725 | 0.08343 | 29198 ft | 439 kts | 168° |
| 2026-04-25 09:52 | 49.82803 | 0.10658 | 29188 ft | 439 kts | 168° |
| 2026-04-25 09:52 | 49.76905 | 0.12957 | 29187 ft | 440 kts | 168° |
| 2026-04-25 09:53 | 49.70971 | 0.15264 | 29186 ft | 440 kts | 168° |
| 2026-04-25 09:53 | 49.65023 | 0.17599 | 29196 ft | 440 kts | 168° |
| 2026-04-25 09:54 | 49.59123 | 0.20000 | 29184 ft | 441 kts | 168° |
| 2026-04-25 09:54 | 49.53189 | 0.22415 | 29183 ft | 441 kts | 168° |
| 2026-04-25 09:55 | 49.47239 | 0.24818 | 29180 ft | 441 kts | 168° |
| 2026-04-25 09:55 | 49.41336 | 0.27194 | 29180 ft | 440 kts | 168° |
| 2026-04-25 09:56 | 49.35409 | 0.29574 | 29178 ft | 440 kts | 168° |
| 2026-04-25 09:56 | 49.29526 | 0.31938 | 29185 ft | 439 kts | 167° |
| 2026-04-25 09:57 | 49.23617 | 0.34417 | 29178 ft | 439 kts | 167° |
| 2026-04-25 09:57 | 49.17711 | 0.36918 | 29172 ft | 439 kts | 167° |
| 2026-04-25 09:58 | 49.11856 | 0.39381 | 29170 ft | 439 kts | 167° |
| 2026-04-25 09:58 | 49.05966 | 0.41844 | 29169 ft | 439 kts | 167° |
| 2026-04-25 09:59 | 49.00061 | 0.44306 | 29165 ft | 439 kts | 167° |
| 2026-04-25 09:59 | 48.94153 | 0.46763 | 29166 ft | 439 kts | 167° |
| 2026-04-25 10:00 | 48.88289 | 0.49197 | 29161 ft | 439 kts | 167° |
| 2026-04-25 10:00 | 48.82386 | 0.51641 | 29150 ft | 439 kts | 167° |
| 2026-04-25 10:01 | 48.76487 | 0.54052 | 29155 ft | 439 kts | 168° |
| 2026-04-25 10:01 | 48.70560 | 0.56361 | 29155 ft | 439 kts | 168° |
| 2026-04-25 10:02 | 48.64678 | 0.58642 | 29151 ft | 439 kts | 168° |
| 2026-04-25 10:02 | 48.58751 | 0.60951 | 29151 ft | 439 kts | 168° |
| 2026-04-25 10:03 | 48.52832 | 0.63253 | 29155 ft | 439 kts | 168° |
| 2026-04-25 10:03 | 48.46908 | 0.65623 | 29153 ft | 440 kts | 167° |
| 2026-04-25 10:04 | 48.41035 | 0.68026 | 29144 ft | 440 kts | 167° |
| 2026-04-25 10:04 | 48.35114 | 0.70435 | 29157 ft | 440 kts | 167° |
| 2026-04-25 10:05 | 48.29192 | 0.72830 | 29139 ft | 441 kts | 167° |
| 2026-04-25 10:05 | 48.23307 | 0.75196 | 29126 ft | 431 kts | 167° |
| 2026-04-25 10:06 | 48.20456 | 0.76326 | 29126 ft | 415 kts | 167° |
| 2026-04-25 10:06 | 48.17701 | 0.77412 | 29117 ft | 400 kts | 167° |
| 2026-04-25 10:06 | 48.15082 | 0.78442 | 29120 ft | 386 kts | 168° |
| 2026-04-25 10:06 | 48.12523 | 0.79446 | 29117 ft | 375 kts | 168° |
| 2026-04-25 10:07 | 48.07449 | 0.81428 | 29147 ft | 380 kts | 168° |
| 2026-04-25 10:07 | 48.02333 | 0.83429 | 29135 ft | 382 kts | 167° |
| 2026-04-25 10:08 | 47.97189 | 0.85441 | 29132 ft | 380 kts | 167° |
| 2026-04-25 10:08 | 47.92076 | 0.87437 | 29139 ft | 379 kts | 167° |
| 2026-04-25 10:09 | 47.87002 | 0.89415 | 29134 ft | 379 kts | 167° |
| 2026-04-25 10:09 | 47.81958 | 0.91375 | 29133 ft | 380 kts | 167° |
| 2026-04-25 10:10 | 47.76826 | 0.93360 | 29142 ft | 382 kts | 167° |
| 2026-04-25 10:10 | 47.71624 | 0.95368 | 29155 ft | 394 kts | 167° |
| 2026-04-25 10:11 | 47.66207 | 0.97454 | 29161 ft | 414 kts | 167° |
| 2026-04-25 10:11 | 47.60504 | 0.99649 | 29152 ft | 430 kts | 167° |
| 2026-04-25 10:12 | 47.54699 | 1.01882 | 29140 ft | 429 kts | 167° |
| 2026-04-25 10:13 | 47.46072 | 1.05188 | 29143 ft | 427 kts | 167° |
| 2026-04-25 10:13 | 47.40245 | 1.06499 | 29141 ft | 422 kts | 182° |
| 2026-04-25 10:13 | 47.37310 | 1.06424 | 29023 ft | 424 kts | 183° |
| 2026-04-25 10:14 | 47.34358 | 1.06308 | 28729 ft | 424 kts | 183° |
| 2026-04-25 10:14 | 47.31408 | 1.06194 | 28456 ft | 424 kts | 183° |
| 2026-04-25 10:14 | 47.28492 | 1.06096 | 28194 ft | 424 kts | 182° |
| 2026-04-25 10:14 | 47.25524 | 1.06012 | 27903 ft | 426 kts | 182° |
| 2026-04-25 10:15 | 47.22530 | 1.05939 | 27378 ft | 432 kts | 182° |
| 2026-04-25 10:15 | 47.19511 | 1.05871 | 26943 ft | 435 kts | 182° |
| 2026-04-25 10:15 | 47.16483 | 1.05805 | 26476 ft | 432 kts | 182° |
| 2026-04-25 10:15 | 47.13488 | 1.05741 | 26026 ft | 428 kts | 182° |
| 2026-04-25 10:16 | 47.10555 | 1.05677 | 25596 ft | 425 kts | 182° |
| 2026-04-25 10:16 | 47.07599 | 1.05611 | 25164 ft | 423 kts | 182° |
| 2026-04-25 10:16 | 47.04650 | 1.05546 | 24732 ft | 421 kts | 182° |
| 2026-04-25 10:16 | 47.01728 | 1.05477 | 24314 ft | 419 kts | 182° |
| 2026-04-25 10:17 | 46.98820 | 1.05368 | 23898 ft | 417 kts | 183° |
| 2026-04-25 10:17 | 46.95956 | 1.05237 | 23450 ft | 415 kts | 183° |
| 2026-04-25 10:17 | 46.93066 | 1.05106 | 22960 ft | 414 kts | 182° |
| 2026-04-25 10:17 | 46.90189 | 1.04982 | 22481 ft | 412 kts | 182° |
| 2026-04-25 10:18 | 46.87334 | 1.04862 | 22012 ft | 409 kts | 182° |
| 2026-04-25 10:18 | 46.84489 | 1.04740 | 21554 ft | 407 kts | 182° |
| 2026-04-25 10:18 | 46.81661 | 1.04615 | 21085 ft | 404 kts | 182° |
| 2026-04-25 10:18 | 46.78893 | 1.04493 | 20646 ft | 401 kts | 182° |
| 2026-04-25 10:19 | 46.76110 | 1.04370 | 20204 ft | 398 kts | 182° |
| 2026-04-25 10:19 | 46.73344 | 1.04249 | 19763 ft | 395 kts | 182° |
| 2026-04-25 10:19 | 46.70631 | 1.04129 | 19342 ft | 392 kts | 182° |
| 2026-04-25 10:19 | 46.67915 | 1.04010 | 18921 ft | 389 kts | 181° |
| 2026-04-25 10:20 | 46.65212 | 1.03892 | 18498 ft | 386 kts | 181° |
| 2026-04-25 10:20 | 46.62526 | 1.03775 | 18019 ft | 384 kts | 181° |
| 2026-04-25 10:20 | 46.59887 | 1.03660 | 17559 ft | 382 kts | 181° |
| 2026-04-25 10:20 | 46.57243 | 1.03546 | 17190 ft | 377 kts | 181° |
| 2026-04-25 10:21 | 46.54605 | 1.03431 | 17158 ft | 379 kts | 182° |
| 2026-04-25 10:21 | 46.51972 | 1.03460 | 17127 ft | 377 kts | 172° |
| 2026-04-25 10:21 | 46.49463 | 1.04556 | 17151 ft | 377 kts | 157° |
| 2026-04-25 10:21 | 46.47055 | 1.06124 | 17137 ft | 379 kts | 155° |
| 2026-04-25 10:22 | 46.44693 | 1.07730 | 17130 ft | 379 kts | 155° |
| 2026-04-25 10:22 | 46.43106 | 1.08816 | 17135 ft | 379 kts | 155° |
| 2026-04-25 10:22 | 46.39907 | 1.10987 | 17133 ft | 379 kts | 155° |
| 2026-04-25 10:22 | 46.37507 | 1.12598 | 17134 ft | 379 kts | 155° |
| 2026-04-25 10:23 | 46.35148 | 1.14168 | 16802 ft | 376 kts | 156° |
| 2026-04-25 10:23 | 46.32818 | 1.15711 | 16199 ft | 368 kts | 156° |
| 2026-04-25 10:23 | 46.30517 | 1.17229 | 15627 ft | 360 kts | 156° |
| 2026-04-25 10:23 | 46.28263 | 1.18712 | 15067 ft | 353 kts | 156° |
| 2026-04-25 10:24 | 46.26045 | 1.20169 | 14501 ft | 346 kts | 156° |
| 2026-04-25 10:24 | 46.23867 | 1.21599 | 13918 ft | 342 kts | 156° |
| 2026-04-25 10:24 | 46.21711 | 1.23013 | 13160 ft | 342 kts | 156° |
| 2026-04-25 10:24 | 46.19545 | 1.24432 | 12430 ft | 341 kts | 156° |
| 2026-04-25 10:25 | 46.17395 | 1.25841 | 11699 ft | 340 kts | 156° |
| 2026-04-25 10:25 | 46.15247 | 1.27295 | 10981 ft | 339 kts | 151° |
| 2026-04-25 10:25 | 46.14565 | 1.27900 | 10740 ft | 339 kts | 147° |
| 2026-04-25 10:25 | 46.13335 | 1.29164 | 10303 ft | 338 kts | 144° |
| 2026-04-25 10:26 | 46.11539 | 1.31147 | 9614 ft | 336 kts | 141° |
| 2026-04-25 10:26 | 46.09984 | 1.33643 | 8851 ft | 336 kts | 120° |
| 2026-04-25 10:26 | 46.09316 | 1.36847 | 8108 ft | 335 kts | 92° |
| 2026-04-25 10:26 | 46.09733 | 1.40073 | 7399 ft | 333 kts | 65° |
| 2026-04-25 10:27 | 46.11160 | 1.42700 | 6685 ft | 330 kts | 37° |
| 2026-04-25 10:27 | 46.13208 | 1.44019 | 6001 ft | 328 kts | 9° |
| 2026-04-25 10:27 | 46.15416 | 1.43805 | 5478 ft | 318 kts | 338° |
| 2026-04-25 10:27 | 46.17160 | 1.42091 | 5370 ft | 296 kts | 308° |
| 2026-04-25 10:28 | 46.17994 | 1.39515 | 5210 ft | 278 kts | 276° |
| 2026-04-25 10:28 | 46.17744 | 1.36877 | 5053 ft | 260 kts | 242° |
| 2026-04-25 10:28 | 46.16684 | 1.35011 | 4952 ft | 246 kts | 216° |
| 2026-04-25 10:28 | 46.15217 | 1.33970 | 4872 ft | 232 kts | 193° |
| 2026-04-25 10:29 | 46.13641 | 1.33777 | 4783 ft | 224 kts | 178° |
| 2026-04-25 10:29 | 46.12100 | 1.33912 | 4707 ft | 221 kts | 176° |
| 2026-04-25 10:29 | 46.10584 | 1.34073 | 4656 ft | 218 kts | 175° |
| 2026-04-25 10:29 | 46.09071 | 1.34231 | 4587 ft | 218 kts | 176° |
| 2026-04-25 10:30 | 46.07540 | 1.34379 | 4528 ft | 222 kts | 176° |
| 2026-04-25 10:30 | 46.06511 | 1.34473 | 4479 ft | 224 kts | 176° |
| 2026-04-25 10:30 | 46.04490 | 1.34605 | 4363 ft | 213 kts | 186° |
| 2026-04-25 10:30 | 46.03160 | 1.33854 | 4277 ft | 199 kts | 209° |
| 2026-04-25 10:31 | 46.01990 | 1.32914 | 4198 ft | 193 kts | 209° |
| 2026-04-25 10:31 | 46.00846 | 1.31917 | 4080 ft | 192 kts | 212° |
| 2026-04-25 10:31 | 45.99746 | 1.30892 | 4006 ft | 188 kts | 213° |
| 2026-04-25 10:31 | 45.98666 | 1.29876 | 3960 ft | 186 kts | 213° |
| 2026-04-25 10:32 | 45.97568 | 1.28843 | 3759 ft | 187 kts | 213° |
| 2026-04-25 10:32 | 45.96511 | 1.27849 | 3536 ft | 174 kts | 213° |
| 2026-04-25 10:32 | 45.95557 | 1.26952 | 3321 ft | 158 kts | 213° |
| 2026-04-25 10:32 | 45.94660 | 1.26105 | 3102 ft | 154 kts | 213° |
| 2026-04-25 10:33 | 45.93775 | 1.25274 | 2911 ft | 150 kts | 214° |
| 2026-04-25 10:33 | 45.92910 | 1.24471 | 2782 ft | 147 kts | 212° |
| 2026-04-25 10:33 | 45.92044 | 1.23688 | 2588 ft | 148 kts | 212° |
| 2026-04-25 10:33 | 45.91168 | 1.22862 | 2356 ft | 153 kts | 213° |
| 2026-04-25 10:34 | 45.90296 | 1.22028 | 2221 ft | 149 kts | 212° |
| 2026-04-25 10:34 | 45.89425 | 1.21195 | 1973 ft | 152 kts | 213° |
| 2026-04-25 10:34 | 45.88535 | 1.20349 | 1706 ft | 153 kts | 213° |
| 2026-04-25 10:34 | 45.87674 | 1.19533 | 1484 ft | 145 kts | 213° |
| 2026-04-25 10:35 | 45.86851 | 1.18759 | 1330 ft | 134 kts | 213° |
| 2026-04-25 10:35 | 45.86179 | 1.18130 | 1311 ft | 88 kts | 213° |
| 2026-04-25 10:35 | 45.85858 | 1.17833 | 1312 ft | 17 kts | 198° |
| 2026-04-25 10:35 | 45.85811 | 1.17774 | 1313 ft | 3 kts | 338° |
| 2026-04-25 10:36 | 45.85855 | 1.17812 | 1312 ft | 15 kts | 36° |
| 2026-04-25 10:36 | 45.85954 | 1.17911 | 1313 ft | 13 kts | 33° |
| 2026-04-25 10:36 | 45.86005 | 1.17959 | 1313 ft | 13 kts | 33° |
| 2026-04-25 10:36 | 45.86105 | 1.17962 | 1312 ft | 13 kts | 311° |
| 2026-04-25 10:37 | 45.86135 | 1.17901 | 1313 ft | 0 kts | 303° |
| 2026-04-25 10:37 | 45.86137 | 1.17897 | 1313 ft | 2 kts | 303° |
| 2026-04-25 10:38 | 45.86149 | 1.17845 | 1314 ft | 8 kts | 279° |
| 2026-04-25 10:38 | 45.86173 | 1.17781 | 1314 ft | 3 kts | 302° |
| 2026-04-25 10:38 | 45.86184 | 1.17756 | 1314 ft | 1 kts | 301° |
| 2026-04-25 10:38 | 45.86187 | 1.17753 | 1314 ft | 1 kts | 326° |
| 2026-04-25 10:39 | 45.86194 | 1.17757 | 1314 ft | 2 kts | 19° |
| 2026-04-25 10:39 | 45.86200 | 1.17775 | 1314 ft | 2 kts | 68° |
| 2026-04-25 10:39 | 45.86201 | 1.17778 | 1314 ft | 0 kts | 68° |
| 2026-04-25 10:39 | 45.86201 | 1.17779 | 1314 ft | 0 kts | 71° |
| 2026-04-25 10:40 | 45.86202 | 1.17782 | 1314 ft | 0 kts | 70° |